createdAt,value
2022-09-22T00:01:39.285Z,82.51
2022-09-22T00:04:10.082Z,82.44
2022-09-22T00:06:41.020Z,81.70
2022-09-22T00:09:12.944Z,82.40
2022-09-22T00:11:44.035Z,82.31
2022-09-22T00:14:15.455Z,83.16
2022-09-22T00:16:47.857Z,83.16
2022-09-22T00:19:20.066Z,83.41
2022-09-22T00:21:48.962Z,82.40
2022-09-22T00:24:18.521Z,83.40
2022-09-22T00:26:46.935Z,82.56
2022-09-22T00:29:17.067Z,82.47
2022-09-22T00:31:46.851Z,82.82
2022-09-22T00:34:18.318Z,83.40
2022-09-22T00:36:47.482Z,82.69
2022-09-22T00:39:17.754Z,82.44
2022-09-22T00:41:49.721Z,82.50
2022-09-22T00:44:42.670Z,83.13
2022-09-22T00:47:22.701Z,82.25
2022-09-22T00:49:55.124Z,82.55
2022-09-22T00:52:28.622Z,82.10
2022-09-22T00:54:59.645Z,83.01
2022-09-22T00:57:32.233Z,82.81
2022-09-22T01:00:02.594Z,82.83
2022-09-22T01:02:33.466Z,82.24
2022-09-22T01:05:01.735Z,82.90
2022-09-22T01:07:31.555Z,83.29
2022-09-22T01:09:59.928Z,83.19
2022-09-22T01:12:30.871Z,83.63
2022-09-22T01:15:22.659Z,83.41
2022-09-22T01:18:15.354Z,82.84
2022-09-22T01:21:26.151Z,83.39
2022-09-22T01:24:34.678Z,83.39
2022-09-22T01:27:32.461Z,83.39
2022-09-22T01:30:22.479Z,82.67
2022-09-22T01:33:06.283Z,83.28
2022-09-22T01:35:45.967Z,83.24
2022-09-22T01:38:19.953Z,83.58
2022-09-22T01:40:52.601Z,83.92
2022-09-22T01:43:33.035Z,83.50
2022-09-22T01:46:08.205Z,84.65
2022-09-22T01:48:38.360Z,83.68
2022-09-22T01:51:14.048Z,84.31
2022-09-22T01:53:47.903Z,83.54
2022-09-22T01:56:19.512Z,83.50
2022-09-22T01:58:51.136Z,83.94
2022-09-22T02:01:24.193Z,83.47
2022-09-22T02:04:01.751Z,83.76
2022-09-22T02:06:37.373Z,84.62
2022-09-22T02:09:11.031Z,84.63
2022-09-22T02:11:39.808Z,83.86
2022-09-22T02:14:08.741Z,83.57
2022-09-22T02:16:38.677Z,83.79
2022-09-22T02:19:13.481Z,84.24
2022-09-22T02:21:45.918Z,84.41
2022-09-22T02:24:32.192Z,83.66
2022-09-22T02:27:03.931Z,84.19
2022-09-22T02:29:36.117Z,84.25
2022-09-22T02:32:10.732Z,84.58
2022-09-22T02:34:39.589Z,84.29
2022-09-22T02:37:18.975Z,84.97
2022-09-22T02:39:57.920Z,84.04
2022-09-22T02:42:30.568Z,84.38
2022-09-22T02:45:06.981Z,84.94
2022-09-22T02:47:42.264Z,83.80
2022-09-22T02:50:13.317Z,83.96
2022-09-22T02:52:42.166Z,84.59
2022-09-22T02:55:12.242Z,84.35
2022-09-22T02:57:40.505Z,84.44
2022-09-22T03:00:10.018Z,84.47
2022-09-22T03:02:39.678Z,84.89
2022-09-22T03:05:08.867Z,84.18
2022-09-22T03:07:37.112Z,84.39
2022-09-22T03:10:06.701Z,84.56
2022-09-22T03:12:34.937Z,84.32
2022-09-22T03:15:03.114Z,84.71
2022-09-22T03:17:32.877Z,84.34
2022-09-22T03:20:02.732Z,84.16
2022-09-22T03:22:30.818Z,84.63
2022-09-22T03:24:59.293Z,84.28
2022-09-22T03:27:27.597Z,84.27
2022-09-22T03:29:55.844Z,84.37
2022-09-22T03:32:23.986Z,84.63
2022-09-22T03:34:52.109Z,84.24
2022-09-22T03:37:21.662Z,84.20
2022-09-22T03:39:49.851Z,84.85
2022-09-22T03:42:18.340Z,84.16
2022-09-22T03:44:46.633Z,84.29
2022-09-22T03:47:14.733Z,84.42
2022-09-22T03:49:43.015Z,84.63
2022-09-22T03:52:11.395Z,84.68
2022-09-22T03:54:40.844Z,84.53
2022-09-22T03:57:09.104Z,84.24
2022-09-22T03:59:37.233Z,84.53
2022-09-22T04:02:05.481Z,84.80
2022-09-22T04:04:33.752Z,84.79
2022-09-22T04:07:07.458Z,84.65
2022-09-22T04:09:35.947Z,84.71
2022-09-22T04:12:06.494Z,84.43
2022-09-22T04:14:34.630Z,84.43
2022-09-22T04:17:05.223Z,84.69
2022-09-22T04:19:35.785Z,84.92
2022-09-22T04:22:04.302Z,84.79
2022-09-22T04:24:33.779Z,84.76
2022-09-22T04:27:19.092Z,84.82
2022-09-22T04:29:48.983Z,84.82
2022-09-22T04:32:17.242Z,84.34
2022-09-22T04:34:45.529Z,84.48
2022-09-22T04:37:13.832Z,84.56
2022-09-22T04:39:42.644Z,85.07
2022-09-22T04:42:10.908Z,84.83
2022-09-22T04:44:39.059Z,84.43
2022-09-22T04:47:08.765Z,84.10
2022-09-22T04:49:36.870Z,84.90
2022-09-22T04:52:05.844Z,84.79
2022-09-22T04:54:33.994Z,84.59
2022-09-22T04:57:02.857Z,84.66
2022-09-22T04:59:30.986Z,84.41
2022-09-22T05:02:00.156Z,84.76
2022-09-22T05:04:29.889Z,84.49
2022-09-22T05:06:59.463Z,85.20
2022-09-22T05:09:28.160Z,84.78
2022-09-22T05:11:59.581Z,84.76
2022-09-22T05:14:28.199Z,84.80
2022-09-22T05:16:56.510Z,84.71
2022-09-22T05:19:24.958Z,84.96
2022-09-22T05:21:55.039Z,84.82
2022-09-22T05:24:23.218Z,85.02
2022-09-22T05:26:51.614Z,84.91
2022-09-22T05:29:20.552Z,85.06
2022-09-22T05:31:50.817Z,85.33
2022-09-22T05:34:19.168Z,85.16
2022-09-22T05:36:47.495Z,84.84
2022-09-22T05:39:16.981Z,85.34
2022-09-22T05:41:45.076Z,85.57
2022-09-22T05:44:13.238Z,85.12
2022-09-22T05:46:41.302Z,85.65
2022-09-22T05:49:09.543Z,85.58
2022-09-22T05:51:37.650Z,85.19
2022-09-22T05:54:06.118Z,85.19
2022-09-22T05:56:35.711Z,85.26
2022-09-22T05:59:03.881Z,85.49
2022-09-22T06:01:32.062Z,85.52
2022-09-22T06:04:00.263Z,85.92
2022-09-22T06:06:28.378Z,86.09
2022-09-22T06:08:56.706Z,86.03
2022-09-22T06:11:24.853Z,85.96
2022-09-22T06:13:54.316Z,86.17
2022-09-22T06:16:22.472Z,85.77
2022-09-22T06:18:50.694Z,85.13
2022-09-22T06:21:18.858Z,85.67
2022-09-22T06:23:46.987Z,84.88
2022-09-22T06:26:15.134Z,85.27
2022-09-22T06:28:43.230Z,85.22
2022-09-22T06:31:15.117Z,85.93
2022-09-22T06:33:48.192Z,85.43
2022-09-22T06:36:23.953Z,85.38
2022-09-22T06:38:54.125Z,85.51
2022-09-22T06:41:22.397Z,85.69
2022-09-22T06:43:52.660Z,85.79
2022-09-22T06:46:24.583Z,85.52
2022-09-22T06:48:54.014Z,85.22
2022-09-22T06:51:22.114Z,85.11
2022-09-22T06:53:52.036Z,85.53
2022-09-22T06:56:20.594Z,86.07
2022-09-22T06:59:08.899Z,85.46
2022-09-22T07:01:39.238Z,84.88
2022-09-22T07:04:07.912Z,84.81
2022-09-22T07:06:37.265Z,85.82
2022-09-22T07:09:06.503Z,86.22
2022-09-22T07:11:39.505Z,85.81
2022-09-22T07:14:09.113Z,85.55
2022-09-22T07:16:40.724Z,84.99
2022-09-22T07:19:09.189Z,85.35
2022-09-22T07:21:37.762Z,84.88
2022-09-22T07:24:08.408Z,84.84
2022-09-22T07:26:39.170Z,84.39
2022-09-22T07:29:13.111Z,84.78
2022-09-22T07:31:43.185Z,84.23
2022-09-22T07:34:12.743Z,84.24
2022-09-22T07:36:40.909Z,84.05
2022-09-22T07:39:11.497Z,83.92
2022-09-22T07:41:42.994Z,83.91
2022-09-22T07:44:30.791Z,83.44
2022-09-22T07:47:01.288Z,83.38
2022-09-22T07:49:29.712Z,83.19
2022-09-22T07:51:58.449Z,83.04
2022-09-22T07:54:28.303Z,82.60
2022-09-22T07:56:58.532Z,82.37
2022-09-22T07:59:27.656Z,81.83
2022-09-22T08:01:56.113Z,81.78
2022-09-22T08:04:26.703Z,81.20
2022-09-22T08:06:56.571Z,80.81
2022-09-22T08:09:25.562Z,80.65
2022-09-22T08:11:54.700Z,80.45
2022-09-22T08:14:24.274Z,79.95
2022-09-22T08:16:53.883Z,79.75
2022-09-22T08:19:25.499Z,79.39
2022-09-22T08:21:55.000Z,79.19
2022-09-22T08:24:23.914Z,78.63
2022-09-22T08:26:55.699Z,78.60
2022-09-22T08:29:24.693Z,78.00
2022-09-22T08:31:54.167Z,77.43
2022-09-22T08:34:23.125Z,76.41
2022-09-22T08:36:52.667Z,75.91
2022-09-22T08:39:20.921Z,75.16
2022-09-22T08:42:05.904Z,75.12
2022-09-22T08:44:41.904Z,73.94
2022-09-22T08:47:38.549Z,73.47
2022-09-22T08:50:42.962Z,72.92
2022-09-22T08:53:17.210Z,72.17
2022-09-22T08:55:51.951Z,72.03
2022-09-22T08:58:32.290Z,71.58
2022-09-22T09:01:18.451Z,71.47
2022-09-22T09:03:57.808Z,70.35
2022-09-22T09:06:36.598Z,70.50
2022-09-22T09:09:38.355Z,69.55
2022-09-22T09:12:35.317Z,69.34
2022-09-22T09:15:34.422Z,68.94
2022-09-22T09:18:17.918Z,68.89
2022-09-22T09:20:48.554Z,68.34
2022-09-22T09:23:19.697Z,67.72
2022-09-22T09:25:52.305Z,67.56
2022-09-22T09:28:28.039Z,67.29
2022-09-22T09:31:04.617Z,66.69
2022-09-22T09:33:43.749Z,66.32
2022-09-22T09:36:18.070Z,65.74
2022-09-22T09:38:51.004Z,65.15
2022-09-22T09:41:24.769Z,64.95
2022-09-22T09:43:55.703Z,64.36
2022-09-22T09:46:40.205Z,64.15
2022-09-22T09:49:14.377Z,63.62
2022-09-22T09:51:46.644Z,62.51
2022-09-22T09:54:18.513Z,61.84
2022-09-22T09:57:10.148Z,61.54
2022-09-22T09:59:57.893Z,60.80
2022-09-22T10:02:29.177Z,59.75
2022-09-22T10:05:00.165Z,59.39
2022-09-22T10:10:33.722Z,59.11
2022-09-22T10:13:29.465Z,58.80
2022-09-22T10:16:22.490Z,57.75
2022-09-22T10:18:53.162Z,56.36
2022-09-22T10:21:23.132Z,55.82
2022-09-22T10:23:52.522Z,54.96
2022-09-22T10:26:26.240Z,54.53
2022-09-22T10:29:19.152Z,54.44
2022-09-22T10:32:17.511Z,53.82
2022-09-22T10:34:48.522Z,52.63
2022-09-22T10:37:19.386Z,52.28
2022-09-22T10:39:50.200Z,52.06
2022-09-22T10:42:34.259Z,51.83
2022-09-22T10:45:10.192Z,52.11
2022-09-22T10:47:57.690Z,50.89
2022-09-22T10:50:59.527Z,50.79
2022-09-22T10:53:51.959Z,50.91
2022-09-22T10:56:30.844Z,50.65
2022-09-22T10:59:42.908Z,50.34
2022-09-22T11:03:04.973Z,49.45
2022-09-22T11:06:02.257Z,49.38
2022-09-22T11:08:58.327Z,49.76
2022-09-22T11:11:50.913Z,47.42
2022-09-22T11:14:36.526Z,47.26
2022-09-22T11:17:21.243Z,47.50
2022-09-22T11:20:23.141Z,47.43
2022-09-22T11:23:16.544Z,47.65
2022-09-22T11:26:04.762Z,47.54
2022-09-22T11:29:01.948Z,47.26
2022-09-22T11:31:43.209Z,46.15
2022-09-22T11:35:13.340Z,45.14
2022-09-22T11:37:53.115Z,44.24
2022-09-22T11:40:34.137Z,43.80
2022-09-22T11:43:21.736Z,43.52
2022-09-22T11:45:57.802Z,43.26
2022-09-22T11:48:44.088Z,42.67
2022-09-22T11:51:35.175Z,41.93
2022-09-22T11:54:49.522Z,41.93
2022-09-22T11:57:23.714Z,40.22
2022-09-22T11:59:56.156Z,40.41
2022-09-22T12:02:32.327Z,39.11
2022-09-22T12:05:04.652Z,38.54
2022-09-22T12:07:44.783Z,38.10
2022-09-22T12:10:22.959Z,38.51
2022-09-22T12:12:51.794Z,38.72
2022-09-22T12:15:29.793Z,38.78
2022-09-22T12:18:10.899Z,38.56
2022-09-22T12:20:55.173Z,38.89
2022-09-22T12:23:40.075Z,39.59
2022-09-22T12:26:12.484Z,40.57
2022-09-22T12:28:43.430Z,40.06
2022-09-22T12:31:14.181Z,38.52
2022-09-22T12:33:49.874Z,39.13
2022-09-22T12:36:20.000Z,37.93
2022-09-22T12:38:48.293Z,37.71
2022-09-22T12:41:21.323Z,37.92
2022-09-22T12:43:49.589Z,38.82
2022-09-22T12:46:27.824Z,38.84
2022-09-22T12:48:56.261Z,38.68
2022-09-22T12:51:34.702Z,39.02
2022-09-22T12:54:39.403Z,38.92
2022-09-22T12:57:28.675Z,37.80
2022-09-22T13:00:08.498Z,35.21
2022-09-22T13:02:44.580Z,33.26
2022-09-22T13:05:36.906Z,33.07
2022-09-22T13:08:05.479Z,33.66
2022-09-22T13:11:00.084Z,34.51
2022-09-22T13:13:42.223Z,35.55
2022-09-22T13:16:35.875Z,36.41
2022-09-22T13:19:09.923Z,36.03
2022-09-22T13:21:41.568Z,36.57
2022-09-22T13:24:27.373Z,33.98
2022-09-22T13:27:05.710Z,32.81
2022-09-22T13:29:36.410Z,31.18
2022-09-22T13:32:21.604Z,31.00
2022-09-22T13:34:49.712Z,31.50
2022-09-22T13:37:22.099Z,32.07
2022-09-22T13:39:54.369Z,32.89
2022-09-22T13:42:31.308Z,34.31
2022-09-22T13:45:06.335Z,33.07
2022-09-22T13:47:36.735Z,31.91
2022-09-22T13:50:08.321Z,30.76
2022-09-22T13:52:39.373Z,29.80
2022-09-22T13:55:13.984Z,29.72
2022-09-22T13:57:43.762Z,28.62
2022-09-22T14:00:26.315Z,28.32
2022-09-22T14:02:57.270Z,27.34
2022-09-22T14:05:28.562Z,26.86
2022-09-22T14:08:12.015Z,26.19
2022-09-22T14:10:43.505Z,26.03
2022-09-22T14:13:40.453Z,26.25
2022-09-22T14:16:21.763Z,25.35
2022-09-22T14:18:54.586Z,25.47
2022-09-22T14:21:23.448Z,25.30
2022-09-22T14:23:52.863Z,25.12
2022-09-22T14:26:36.410Z,25.27
2022-09-22T14:29:19.609Z,24.62
2022-09-22T14:31:53.666Z,24.17
2022-09-22T14:34:27.459Z,24.19
2022-09-22T14:36:56.610Z,24.33
2022-09-22T14:39:33.994Z,23.91
2022-09-22T14:42:11.999Z,23.81
2022-09-22T14:44:46.069Z,24.43
2022-09-22T14:47:26.707Z,24.77
2022-09-22T14:50:19.121Z,25.19
2022-09-22T14:52:56.981Z,24.56
2022-09-22T14:55:34.432Z,24.81
2022-09-22T14:58:13.099Z,24.48
2022-09-22T15:01:11.808Z,24.60
2022-09-22T15:03:44.747Z,25.20
2022-09-22T15:06:15.673Z,24.94
2022-09-22T15:08:49.943Z,25.66
2022-09-22T15:11:18.886Z,26.16
2022-09-22T15:13:50.774Z,26.08
2022-09-22T15:16:46.568Z,25.96
2022-09-22T15:19:16.081Z,27.13
2022-09-22T15:21:48.423Z,27.80
2022-09-22T15:24:21.298Z,28.08
2022-09-22T15:26:49.625Z,28.91
2022-09-22T15:29:17.791Z,28.50
2022-09-22T15:31:46.999Z,28.99
2022-09-22T15:34:16.629Z,28.13
2022-09-22T15:36:49.922Z,28.39
2022-09-22T15:39:21.940Z,28.68
2022-09-22T15:41:50.515Z,28.49
2022-09-22T15:44:18.993Z,27.92
2022-09-22T15:46:51.534Z,27.16
2022-09-22T15:49:26.198Z,27.03
2022-09-22T15:51:55.935Z,26.62
2022-09-22T15:54:26.098Z,26.33
2022-09-22T15:56:56.049Z,26.03
2022-09-22T15:59:28.122Z,26.14
2022-09-22T16:01:57.495Z,26.30
2022-09-22T16:04:34.218Z,25.40
2022-09-22T16:07:05.961Z,25.58
2022-09-22T16:09:34.296Z,25.83
2022-09-22T16:12:03.163Z,25.71
2022-09-22T16:14:31.383Z,25.92
2022-09-22T16:16:59.666Z,26.27
2022-09-22T16:19:31.966Z,26.87
2022-09-22T16:22:00.102Z,26.23
2022-09-22T16:24:29.002Z,26.63
2022-09-22T16:26:57.206Z,27.13
2022-09-22T16:29:25.611Z,27.43
2022-09-22T16:31:54.168Z,28.72
2022-09-22T16:34:22.371Z,29.90
2022-09-22T16:36:52.542Z,31.51
2022-09-22T16:39:20.760Z,32.16
2022-09-22T16:41:48.970Z,33.58
2022-09-22T16:44:17.326Z,33.71
2022-09-22T16:46:45.612Z,34.94
2022-09-22T16:49:17.242Z,35.09
2022-09-22T16:51:49.470Z,34.60
2022-09-22T16:54:20.183Z,34.78
2022-09-22T16:56:50.463Z,35.66
2022-09-22T16:59:21.207Z,36.69
2022-09-22T17:01:51.132Z,37.58
2022-09-22T17:04:19.979Z,38.38
2022-09-22T17:06:48.850Z,39.41
2022-09-22T17:09:19.345Z,40.27
2022-09-22T17:11:49.098Z,40.97
2022-09-22T17:14:21.047Z,41.93
2022-09-22T17:16:52.180Z,42.65
2022-09-22T17:19:22.618Z,43.52
2022-09-22T17:21:54.185Z,44.17
2022-09-22T17:24:25.194Z,44.66
2022-09-22T17:26:55.897Z,45.59
2022-09-22T17:29:26.697Z,46.11
2022-09-22T17:31:57.577Z,47.35
2022-09-22T17:34:26.059Z,48.31
2022-09-22T17:36:55.528Z,49.25
2022-09-22T17:39:27.475Z,50.17
2022-09-22T17:41:56.268Z,50.90
2022-09-22T17:44:28.355Z,51.63
2022-09-22T17:47:14.231Z,52.44
2022-09-22T17:49:59.784Z,52.50
2022-09-22T17:52:46.062Z,53.31
2022-09-22T17:55:22.059Z,54.19
2022-09-22T17:57:52.655Z,55.32
2022-09-22T18:00:22.938Z,56.49
2022-09-22T18:02:54.138Z,56.72
2022-09-22T18:05:26.787Z,56.97
2022-09-22T18:07:58.391Z,58.18
2022-09-22T18:10:32.195Z,58.22
2022-09-22T18:13:01.241Z,59.02
2022-09-22T18:15:29.565Z,59.37
2022-09-22T18:17:58.476Z,59.91
2022-09-22T18:20:27.665Z,60.32
2022-09-22T18:22:57.814Z,61.23
2022-09-22T18:25:28.177Z,61.86
2022-09-22T18:27:57.260Z,62.43
2022-09-22T18:30:25.741Z,62.60
2022-09-22T18:32:54.939Z,62.85
2022-09-22T18:35:24.091Z,63.15
2022-09-22T18:37:52.203Z,62.94
2022-09-22T18:40:20.373Z,63.66
2022-09-22T18:42:50.160Z,63.58
2022-09-22T18:45:19.380Z,64.18
2022-09-22T18:47:47.487Z,64.34
2022-09-22T18:50:16.378Z,63.96
2022-09-22T18:52:45.857Z,64.68
2022-09-22T18:55:17.295Z,64.68
2022-09-22T18:57:47.392Z,64.78
2022-09-22T19:00:21.987Z,65.31
2022-09-22T19:02:50.470Z,65.65
2022-09-22T19:05:19.232Z,65.75
2022-09-22T19:07:48.277Z,65.96
2022-09-22T19:10:21.857Z,66.27
2022-09-22T19:12:50.719Z,66.33
2022-09-22T19:15:20.855Z,66.96
2022-09-22T19:17:50.569Z,66.96
2022-09-22T19:20:23.633Z,67.51
2022-09-22T19:22:52.672Z,67.91
2022-09-22T19:25:22.287Z,67.95
2022-09-22T19:27:54.691Z,68.08
2022-09-22T19:30:28.570Z,68.01
2022-09-22T19:32:57.797Z,68.44
2022-09-22T19:35:26.414Z,68.41
2022-09-22T19:37:54.639Z,68.25
2022-09-22T19:40:25.023Z,68.61
2022-09-22T19:42:54.351Z,68.53
2022-09-22T19:45:25.557Z,68.54
2022-09-22T19:47:56.282Z,68.80
2022-09-22T19:50:24.907Z,69.24
2022-09-22T19:52:53.100Z,69.39
2022-09-22T19:55:21.807Z,69.46
2022-09-22T19:57:53.991Z,69.92
2022-09-22T20:00:26.677Z,70.24
2022-09-22T20:02:58.646Z,70.44
2022-09-22T20:05:31.763Z,70.78
2022-09-22T20:08:01.404Z,70.74
2022-09-22T20:10:31.558Z,71.12
2022-09-22T20:13:00.314Z,71.14
2022-09-22T20:15:29.933Z,71.25
2022-09-22T20:17:58.159Z,71.68
2022-09-22T20:20:26.883Z,71.63
2022-09-22T20:23:00.363Z,71.84
2022-09-22T20:25:32.094Z,72.43
2022-09-22T20:28:00.333Z,72.40
2022-09-22T20:30:30.045Z,72.40
2022-09-22T20:32:59.024Z,72.41
2022-09-22T20:35:27.254Z,72.60
2022-09-22T20:37:59.225Z,72.61
2022-09-22T20:40:28.966Z,72.72
2022-09-22T20:42:57.234Z,72.60
2022-09-22T20:45:25.453Z,72.75
2022-09-22T20:47:56.149Z,72.81
2022-09-22T20:50:24.399Z,72.73
2022-09-22T20:52:52.609Z,72.80
2022-09-22T20:55:22.419Z,72.81
2022-09-22T20:57:50.562Z,72.79
2022-09-22T21:00:18.774Z,72.80
2022-09-22T21:02:47.379Z,72.99
2022-09-22T21:05:17.404Z,72.87
2022-09-22T21:07:45.624Z,72.86
2022-09-22T21:10:31.777Z,73.19
2022-09-22T21:13:00.442Z,72.80
2022-09-22T21:15:30.088Z,72.72
2022-09-22T21:17:58.528Z,72.58
2022-09-22T21:20:28.161Z,72.56
2022-09-22T21:22:56.734Z,72.49
2022-09-22T21:25:25.318Z,72.36
2022-09-22T21:27:53.444Z,72.44
2022-09-22T21:30:21.567Z,72.29
2022-09-22T21:32:49.760Z,72.03
2022-09-22T21:35:18.487Z,72.23
2022-09-22T21:37:48.094Z,71.89
2022-09-22T21:40:17.496Z,72.03
2022-09-22T21:42:45.751Z,71.83
2022-09-22T21:45:14.021Z,72.29
2022-09-22T21:47:42.157Z,71.89
2022-09-22T21:50:11.046Z,71.90
2022-09-22T21:52:39.415Z,71.90
2022-09-22T21:55:10.273Z,71.61
2022-09-22T21:57:38.387Z,71.77
2022-09-22T22:00:09.327Z,71.71
2022-09-22T22:02:57.711Z,71.87
2022-09-22T22:05:26.887Z,71.58
2022-09-22T22:07:55.192Z,71.69
2022-09-22T22:10:24.970Z,71.80
2022-09-22T22:12:53.149Z,71.82
2022-09-22T22:15:21.222Z,71.96
2022-09-22T22:17:49.370Z,71.84
2022-09-22T22:20:17.697Z,72.00
2022-09-22T22:22:46.717Z,71.69
2022-09-22T22:25:18.530Z,72.09
2022-09-22T22:27:48.073Z,71.93
2022-09-22T22:30:18.985Z,72.00
2022-09-22T22:32:47.289Z,71.92
2022-09-22T22:35:15.628Z,71.95
2022-09-22T22:37:45.710Z,72.05
2022-09-22T22:40:13.948Z,72.16
2022-09-22T22:42:42.193Z,72.03
2022-09-22T22:45:12.253Z,72.23
2022-09-22T22:47:40.437Z,72.07
2022-09-22T22:50:10.612Z,72.19
2022-09-22T22:52:40.211Z,72.21
2022-09-22T22:55:10.424Z,72.25
2022-09-22T22:57:38.543Z,72.20
2022-09-22T23:00:08.466Z,72.23
2022-09-22T23:02:38.642Z,72.33
2022-09-22T23:05:08.477Z,72.30
2022-09-22T23:07:36.653Z,72.58
2022-09-22T23:10:08.181Z,72.89
2022-09-22T23:12:39.990Z,72.36
2022-09-22T23:15:10.640Z,72.59
2022-09-22T23:17:40.495Z,72.72
2022-09-22T23:20:10.195Z,72.69
2022-09-22T23:22:38.269Z,72.85
2022-09-22T23:25:07.094Z,72.81
2022-09-22T23:27:35.230Z,72.83
2022-09-22T23:30:03.611Z,72.90
2022-09-22T23:32:31.704Z,72.94
2022-09-22T23:35:01.703Z,73.11
2022-09-22T23:37:29.778Z,73.17
2022-09-22T23:39:58.460Z,72.98
2022-09-22T23:42:26.662Z,73.06
2022-09-22T23:44:54.723Z,73.26
2022-09-22T23:47:22.814Z,72.92
2022-09-22T23:49:50.916Z,73.24
2022-09-22T23:52:22.466Z,73.10
2022-09-22T23:54:50.578Z,72.86
2022-09-22T23:57:18.705Z,73.08
2022-09-22T23:59:46.817Z,73.22
